MSKTO EGLW-EGGW
Flight info
| Callsign | MSKTO |
|---|---|
| Flight time | 0h 16m |
| Altitude | 1500 |
| Route | EGLW DCT EGGW |
| Aircraft | H160/L-SDE2E3GHIJ1J3J4J5LM1ORWXY/S |
Departure
| Time | 2026-05-04 22:14 |
|---|---|
| Airport | London Heliport (EGLW) |
Arrival
| Time | 2026-05-04 22:31 |
|---|---|
| Airport | London Luton Airport (EGGW) |
| Time | Latitude | Longitude | Altitude | Speed | Heading |
|---|---|---|---|---|---|
| 2026-05-04 22:05 | 51.46958 | -0.17917 | 30 ft | 0 kts | 23° |
| 2026-05-04 22:11 | 51.46963 | -0.17913 | 32 ft | 2 kts | 26° |
| 2026-05-04 22:11 | 51.46976 | -0.17912 | 32 ft | 2 kts | 337° |
| 2026-05-04 22:12 | 51.46986 | -0.17932 | 31 ft | 0 kts | 297° |
| 2026-05-04 22:12 | 51.46989 | -0.17940 | 32 ft | 2 kts | 296° |
| 2026-05-04 22:12 | 51.46996 | -0.17952 | 31 ft | 1 kts | 4° |
| 2026-05-04 22:13 | 51.46997 | -0.17951 | 32 ft | 1 kts | 26° |
| 2026-05-04 22:13 | 51.46973 | -0.18012 | 100 ft | 13 kts | 22° |
| 2026-05-04 22:13 | 51.46876 | -0.18085 | 292 ft | 13 kts | 19° |
| 2026-05-04 22:13 | 51.46955 | -0.18055 | 414 ft | 44 kts | 30° |
| 2026-05-04 22:14 | 51.47425 | -0.17928 | 442 ft | 93 kts | 347° |
| 2026-05-04 22:14 | 51.47764 | -0.18888 | 437 ft | 116 kts | 273° |
| 2026-05-04 22:14 | 51.47631 | -0.19989 | 799 ft | 95 kts | 259° |
| 2026-05-04 22:14 | 51.47814 | -0.20863 | 974 ft | 84 kts | 340° |
| 2026-05-04 22:15 | 51.48365 | -0.20848 | 1117 ft | 84 kts | 9° |
| 2026-05-04 22:15 | 51.48985 | -0.20770 | 1191 ft | 94 kts | 9° |
| 2026-05-04 22:15 | 51.49691 | -0.20711 | 1227 ft | 113 kts | 6° |
| 2026-05-04 22:15 | 51.50507 | -0.20618 | 1344 ft | 117 kts | 9° |
| 2026-05-04 22:16 | 51.51316 | -0.20507 | 1449 ft | 117 kts | 9° |
| 2026-05-04 22:16 | 51.52127 | -0.20441 | 1501 ft | 117 kts | 2° |
| 2026-05-04 22:16 | 51.52938 | -0.20681 | 1518 ft | 120 kts | 349° |
| 2026-05-04 22:16 | 51.53731 | -0.21072 | 1534 ft | 118 kts | 347° |
| 2026-05-04 22:17 | 51.54513 | -0.21477 | 1532 ft | 119 kts | 347° |
| 2026-05-04 22:17 | 51.55279 | -0.21976 | 1539 ft | 120 kts | 336° |
| 2026-05-04 22:17 | 51.55987 | -0.22698 | 1532 ft | 121 kts | 332° |
| 2026-05-04 22:17 | 51.56683 | -0.23444 | 1541 ft | 120 kts | 332° |
| 2026-05-04 22:18 | 51.57368 | -0.24183 | 1537 ft | 120 kts | 332° |
| 2026-05-04 22:18 | 51.58061 | -0.24921 | 1536 ft | 119 kts | 332° |
| 2026-05-04 22:18 | 51.58763 | -0.25653 | 1542 ft | 120 kts | 332° |
| 2026-05-04 22:18 | 51.59467 | -0.26376 | 1538 ft | 120 kts | 332° |
| 2026-05-04 22:19 | 51.59934 | -0.26858 | 1531 ft | 119 kts | 332° |
| 2026-05-04 22:19 | 51.60669 | -0.27620 | 1538 ft | 119 kts | 332° |
| 2026-05-04 22:19 | 51.61371 | -0.28344 | 1533 ft | 120 kts | 333° |
| 2026-05-04 22:19 | 51.62075 | -0.29073 | 1539 ft | 120 kts | 332° |
| 2026-05-04 22:20 | 51.62543 | -0.29555 | 1537 ft | 120 kts | 332° |
| 2026-05-04 22:20 | 51.63478 | -0.30519 | 1533 ft | 120 kts | 332° |
| 2026-05-04 22:20 | 51.64182 | -0.31255 | 1540 ft | 120 kts | 332° |
| 2026-05-04 22:20 | 51.64884 | -0.31971 | 1539 ft | 119 kts | 333° |
| 2026-05-04 22:21 | 51.65347 | -0.32448 | 1539 ft | 119 kts | 332° |
| 2026-05-04 22:21 | 51.66047 | -0.33168 | 1534 ft | 120 kts | 332° |
| 2026-05-04 22:21 | 51.66749 | -0.33891 | 1538 ft | 120 kts | 333° |
| 2026-05-04 22:21 | 51.67450 | -0.34613 | 1536 ft | 120 kts | 332° |
| 2026-05-04 22:22 | 51.68154 | -0.35335 | 1539 ft | 119 kts | 332° |
| 2026-05-04 22:22 | 51.68846 | -0.36047 | 1540 ft | 119 kts | 332° |
| 2026-05-04 22:22 | 51.69549 | -0.36774 | 1540 ft | 119 kts | 332° |
| 2026-05-04 22:22 | 51.70248 | -0.37500 | 1536 ft | 120 kts | 332° |
| 2026-05-04 22:23 | 51.70949 | -0.38223 | 1533 ft | 119 kts | 332° |
| 2026-05-04 22:23 | 51.71652 | -0.38940 | 1535 ft | 119 kts | 332° |
| 2026-05-04 22:23 | 51.72355 | -0.39662 | 1540 ft | 120 kts | 332° |
| 2026-05-04 22:23 | 51.73046 | -0.40376 | 1539 ft | 120 kts | 332° |
| 2026-05-04 22:24 | 51.73749 | -0.41099 | 1539 ft | 120 kts | 332° |
| 2026-05-04 22:24 | 51.74449 | -0.41820 | 1539 ft | 119 kts | 332° |
| 2026-05-04 22:24 | 51.75149 | -0.42546 | 1535 ft | 120 kts | 332° |
| 2026-05-04 22:24 | 51.75849 | -0.43267 | 1535 ft | 119 kts | 332° |
| 2026-05-04 22:25 | 51.76547 | -0.43982 | 1541 ft | 119 kts | 332° |
| 2026-05-04 22:25 | 51.77229 | -0.44687 | 1537 ft | 120 kts | 332° |
| 2026-05-04 22:25 | 51.77923 | -0.45407 | 1541 ft | 120 kts | 332° |
| 2026-05-04 22:25 | 51.78626 | -0.46140 | 1538 ft | 120 kts | 332° |
| 2026-05-04 22:26 | 51.79325 | -0.46859 | 1534 ft | 118 kts | 332° |
| 2026-05-04 22:26 | 51.80019 | -0.47569 | 1541 ft | 118 kts | 332° |
| 2026-05-04 22:26 | 51.80709 | -0.48277 | 1537 ft | 119 kts | 332° |
| 2026-05-04 22:26 | 51.81405 | -0.48997 | 1536 ft | 119 kts | 332° |
| 2026-05-04 22:27 | 51.82103 | -0.49714 | 1539 ft | 118 kts | 332° |
| 2026-05-04 22:27 | 51.82801 | -0.50425 | 1538 ft | 118 kts | 332° |
| 2026-05-04 22:27 | 51.83499 | -0.51136 | 1535 ft | 118 kts | 332° |
| 2026-05-04 22:27 | 51.84193 | -0.51845 | 1523 ft | 118 kts | 333° |
| 2026-05-04 22:28 | 51.84872 | -0.51690 | 1402 ft | 112 kts | 56° |
| 2026-05-04 22:28 | 51.85104 | -0.50509 | 1393 ft | 109 kts | 81° |
| 2026-05-04 22:28 | 51.85166 | -0.49297 | 1387 ft | 109 kts | 82° |
| 2026-05-04 22:28 | 51.85344 | -0.48099 | 1338 ft | 110 kts | 76° |
| 2026-05-04 22:29 | 51.85557 | -0.46924 | 1307 ft | 105 kts | 70° |
| 2026-05-04 22:29 | 51.85768 | -0.45909 | 1493 ft | 84 kts | 72° |
| 2026-05-04 22:29 | 51.85942 | -0.45037 | 1429 ft | 82 kts | 71° |
| 2026-05-04 22:29 | 51.86131 | -0.44171 | 1355 ft | 81 kts | 73° |
| 2026-05-04 22:30 | 51.86281 | -0.43362 | 1411 ft | 70 kts | 72° |
| 2026-05-04 22:30 | 51.86406 | -0.42646 | 1300 ft | 64 kts | 73° |
| 2026-05-04 22:30 | 51.86525 | -0.41977 | 1265 ft | 60 kts | 72° |
| 2026-05-04 22:30 | 51.86629 | -0.41342 | 1176 ft | 57 kts | 75° |
| 2026-05-04 22:31 | 51.86732 | -0.40764 | 1074 ft | 50 kts | 70° |
| 2026-05-04 22:31 | 51.86826 | -0.40258 | 965 ft | 44 kts | 73° |
| 2026-05-04 22:31 | 51.86905 | -0.39808 | 833 ft | 39 kts | 73° |
| 2026-05-04 22:31 | 51.87010 | -0.39257 | 737 ft | 63 kts | 70° |
| 2026-05-04 22:32 | 51.87141 | -0.38520 | 641 ft | 67 kts | 75° |
| 2026-05-04 22:32 | 51.87272 | -0.37890 | 562 ft | 46 kts | 57° |
| 2026-05-04 22:32 | 51.87407 | -0.37596 | 535 ft | 24 kts | 24° |
| 2026-05-04 22:32 | 51.87449 | -0.37588 | 529 ft | 2 kts | 22° |
| 2026-05-04 22:33 | 51.87442 | -0.37595 | 518 ft | 0 kts | 28° |
| 2026-05-04 22:33 | 51.87443 | -0.37595 | 518 ft | 0 kts | 35° |
| 2026-05-04 22:33 | 51.87459 | -0.37573 | 518 ft | 6 kts | 39° |
| 2026-05-04 22:33 | 51.87503 | -0.37511 | 518 ft | 10 kts | 41° |
| 2026-05-04 22:34 | 51.87578 | -0.37457 | 518 ft | 13 kts | 2° |
| 2026-05-04 22:34 | 51.87666 | -0.37502 | 517 ft | 15 kts | 321° |
| 2026-05-04 22:34 | 51.87727 | -0.37659 | 516 ft | 15 kts | 297° |
| 2026-05-04 22:34 | 51.87762 | -0.37778 | 519 ft | 10 kts | 293° |
| 2026-05-04 22:35 | 51.87783 | -0.37889 | 519 ft | 9 kts | 284° |
| 2026-05-04 22:35 | 51.87795 | -0.37971 | 519 ft | 7 kts | 281° |
| 2026-05-04 22:35 | 51.87804 | -0.38020 | 519 ft | 0 kts | 309° |